createdAt,value
2023-03-20T00:02:34.164Z,13.37
2023-03-20T00:07:47.811Z,13.50
2023-03-20T00:12:52.601Z,16.20
2023-03-20T00:18:05.854Z,16.67
2023-03-20T00:23:07.832Z,16.40
2023-03-20T00:28:41.937Z,15.57
2023-03-20T00:33:49.014Z,17.30
2023-03-20T00:39:01.951Z,16.67
2023-03-20T00:44:21.959Z,18.33
2023-03-20T00:49:30.747Z,19.90
2023-03-20T00:54:35.573Z,20.23
2023-03-20T00:59:48.160Z,18.03
2023-03-20T01:04:54.524Z,18.77
2023-03-20T01:10:03.829Z,19.60
2023-03-20T01:15:22.657Z,20.97
2023-03-20T01:20:32.134Z,19.47
2023-03-20T01:25:37.301Z,20.10
2023-03-20T01:30:46.884Z,18.57
2023-03-20T01:35:54.175Z,20.13
2023-03-20T01:41:22.568Z,20.60
2023-03-20T01:46:37.534Z,19.37
2023-03-20T01:57:36.855Z,21.23
2023-03-20T02:02:44.153Z,22.57
2023-03-20T02:08:19.581Z,21.53
2023-03-20T02:13:32.226Z,23.37
2023-03-20T02:18:36.626Z,23.67
2023-03-20T02:23:44.130Z,24.10
2023-03-20T02:29:05.632Z,24.67
2023-03-20T02:34:46.501Z,26.57
2023-03-20T02:40:23.133Z,30.70
2023-03-20T02:45:54.033Z,29.20
2023-03-20T02:51:29.613Z,31.83
2023-03-20T02:56:35.564Z,31.23
2023-03-20T03:01:47.410Z,29.17
2023-03-20T03:06:57.924Z,29.87
2023-03-20T03:12:14.009Z,30.20
2023-03-20T03:17:29.717Z,29.40
2023-03-20T03:22:34.487Z,27.40
2023-03-20T03:27:47.334Z,25.90
2023-03-20T03:33:32.080Z,25.23
2023-03-20T03:38:43.835Z,24.00
2023-03-20T03:44:13.585Z,25.57
2023-03-20T03:49:42.285Z,25.27
2023-03-20T03:55:03.338Z,25.00
2023-03-20T04:06:30.998Z,22.87
2023-03-20T04:11:38.556Z,25.80
2023-03-20T04:16:45.168Z,25.10
2023-03-20T04:21:50.051Z,26.23
2023-03-20T04:26:57.113Z,25.63
2023-03-20T04:32:07.297Z,27.03
2023-03-20T04:37:11.991Z,25.10
2023-03-20T04:42:19.621Z,25.27
2023-03-20T04:47:36.869Z,26.60
2023-03-20T04:52:48.318Z,24.57
2023-03-20T04:57:52.877Z,25.63
2023-03-20T05:03:01.280Z,23.63
2023-03-20T05:08:18.078Z,25.00
2023-03-20T05:13:29.636Z,24.77
2023-03-20T05:18:31.466Z,25.47
2023-03-20T05:23:35.815Z,24.60
2023-03-20T05:28:46.534Z,24.30
2023-03-20T05:33:53.684Z,23.53
2023-03-20T05:39:00.195Z,23.83
2023-03-20T05:44:05.760Z,23.50
2023-03-20T05:49:39.892Z,24.53
2023-03-20T05:54:41.820Z,23.80
2023-03-20T06:00:28.640Z,25.13
2023-03-20T06:05:45.488Z,25.33
2023-03-20T06:11:15.531Z,25.40
2023-03-20T06:16:41.135Z,27.67
2023-03-20T06:21:48.063Z,28.50
2023-03-20T06:26:52.219Z,29.30
2023-03-20T06:32:07.438Z,29.47
2023-03-20T06:37:17.732Z,29.20
2023-03-20T06:42:25.990Z,26.83
2023-03-20T06:47:34.507Z,25.10
2023-03-20T06:52:48.705Z,22.47
2023-03-20T06:57:53.397Z,18.30
2023-03-20T07:03:00.365Z,17.80
2023-03-20T07:08:10.010Z,16.43
2023-03-20T07:13:15.046Z,16.37
2023-03-20T07:18:21.128Z,14.70
2023-03-20T07:23:25.043Z,14.20
2023-03-20T07:28:33.754Z,12.70
2023-03-20T07:33:38.019Z,11.80
2023-03-20T07:38:42.527Z,11.40
2023-03-20T07:43:47.820Z,10.33
2023-03-20T07:48:51.987Z,11.20
2023-03-20T07:53:59.226Z,14.23
2023-03-20T07:59:04.374Z,13.60
2023-03-20T08:04:08.885Z,13.90
2023-03-20T08:09:13.720Z,15.07
2023-03-20T08:14:18.411Z,16.53
2023-03-20T08:19:22.449Z,14.73
2023-03-20T08:24:28.383Z,14.90
2023-03-20T08:29:33.362Z,15.43
2023-03-20T08:34:37.501Z,14.33
2023-03-20T08:39:49.392Z,14.60
2023-03-20T08:44:53.393Z,15.80
2023-03-20T08:50:01.760Z,15.67
2023-03-20T08:55:05.254Z,16.40
2023-03-20T09:00:10.149Z,14.53
2023-03-20T09:05:12.428Z,14.53
2023-03-20T09:10:18.133Z,13.23
2023-03-20T09:15:25.468Z,12.87
2023-03-20T09:20:30.671Z,12.77
2023-03-20T09:25:38.434Z,13.07
2023-03-20T09:30:44.058Z,11.47
2023-03-20T09:35:46.607Z,11.67
2023-03-20T09:41:01.729Z,11.00
2023-03-20T09:46:22.501Z,11.03
2023-03-20T09:51:37.987Z,9.83
2023-03-20T09:56:42.130Z,9.13
2023-03-20T10:02:10.277Z,8.47
2023-03-20T10:07:15.681Z,6.73
2023-03-20T10:12:25.703Z,6.60
2023-03-20T10:17:45.337Z,7.53
2023-03-20T10:23:01.325Z,6.80
2023-03-20T10:28:20.844Z,8.97
2023-03-20T10:33:44.053Z,8.30
2023-03-20T10:39:10.462Z,8.53
2023-03-20T10:44:24.973Z,8.63
2023-03-20T10:49:40.407Z,9.10
2023-03-20T10:54:53.045Z,10.07
2023-03-20T11:00:04.057Z,9.93
2023-03-20T11:05:26.901Z,9.77
2023-03-20T11:10:32.954Z,9.50
2023-03-20T11:15:37.938Z,8.63
2023-03-20T11:21:06.788Z,6.87
2023-03-20T11:26:19.674Z,7.33
2023-03-20T11:31:40.144Z,7.00
2023-03-20T11:37:09.360Z,5.87
2023-03-20T11:42:36.834Z,5.17
2023-03-20T11:47:50.613Z,4.73
2023-03-20T11:52:57.756Z,4.57
2023-03-20T11:58:07.191Z,4.67
2023-03-20T12:03:48.998Z,4.53
2023-03-20T12:08:59.624Z,4.10
2023-03-20T12:14:06.932Z,5.17
2023-03-20T12:19:21.839Z,4.80
2023-03-20T12:24:38.568Z,5.70
2023-03-20T12:29:49.960Z,6.67
2023-03-20T12:35:27.654Z,4.53
2023-03-20T12:40:47.355Z,4.13
2023-03-20T12:46:30.833Z,6.30
2023-03-20T12:51:56.878Z,5.90
2023-03-20T12:57:12.300Z,5.10
2023-03-20T13:02:50.892Z,5.57
2023-03-20T13:08:01.341Z,6.10
2023-03-20T13:13:15.776Z,6.27
2023-03-20T13:18:42.503Z,4.63
2023-03-20T13:24:16.144Z,5.87
2023-03-20T13:29:31.925Z,4.17
2023-03-20T13:35:05.488Z,3.40
2023-03-20T13:40:28.726Z,3.80
2023-03-20T13:45:41.914Z,3.63
2023-03-20T13:51:02.257Z,3.97
2023-03-20T13:56:05.299Z,4.50
2023-03-20T14:02:03.541Z,5.90
2023-03-20T14:07:40.472Z,6.00
2023-03-20T14:12:42.395Z,6.00
2023-03-20T14:17:47.412Z,7.00
2023-03-20T14:22:55.318Z,6.27
2023-03-20T14:27:58.609Z,5.60
2023-03-20T14:33:15.854Z,5.83
2023-03-20T14:38:26.039Z,5.80
2023-03-20T14:43:45.313Z,5.97
2023-03-20T14:48:59.264Z,6.00
2023-03-20T14:54:25.171Z,5.97
2023-03-20T14:59:33.460Z,5.37
2023-03-20T15:04:38.480Z,4.50
2023-03-20T15:09:46.222Z,5.13
2023-03-20T15:14:54.366Z,5.40
2023-03-20T15:20:14.664Z,4.60
2023-03-20T15:25:20.850Z,3.93
2023-03-20T15:30:25.369Z,4.17
2023-03-20T15:35:27.883Z,4.20
2023-03-20T15:40:49.348Z,3.70
2023-03-20T15:46:16.209Z,4.33
2023-03-20T15:51:27.017Z,4.50
2023-03-20T15:56:33.871Z,3.77
2023-03-20T16:01:37.823Z,4.30
2023-03-20T16:06:52.751Z,5.07
2023-03-20T16:12:05.660Z,4.87
2023-03-20T16:17:12.800Z,3.97
2023-03-20T16:22:34.096Z,3.93
2023-03-20T16:27:45.189Z,4.00
2023-03-20T16:33:02.679Z,4.13
2023-03-20T16:38:22.076Z,7.47
2023-03-20T16:43:34.447Z,4.67
2023-03-20T16:48:52.543Z,6.63
2023-03-20T16:54:01.003Z,6.27
2023-03-20T16:59:13.545Z,6.10
2023-03-20T17:04:55.401Z,6.40
2023-03-20T17:10:30.258Z,8.00
2023-03-20T17:15:42.127Z,7.90
2023-03-20T17:20:47.012Z,8.90
2023-03-20T17:25:50.299Z,9.30
2023-03-20T17:31:00.017Z,10.23
2023-03-20T17:36:26.410Z,9.10
2023-03-20T17:41:33.127Z,8.90
2023-03-20T17:46:56.524Z,8.30
2023-03-20T17:52:20.141Z,9.10
2023-03-20T17:57:44.003Z,9.57
2023-03-20T18:02:50.303Z,8.93
2023-03-20T18:07:55.329Z,7.77
2023-03-20T18:13:03.212Z,8.40
2023-03-20T18:18:05.837Z,7.97
2023-03-20T18:23:19.258Z,7.37
2023-03-20T18:28:22.956Z,8.33
2023-03-20T18:38:53.406Z,7.77
2023-03-20T18:44:00.494Z,7.80
2023-03-20T18:49:19.417Z,8.77
2023-03-20T18:54:29.577Z,7.87
2023-03-20T19:05:58.906Z,8.90
2023-03-20T19:11:52.244Z,7.97
2023-03-20T19:16:54.039Z,9.23
2023-03-20T19:35:50.550Z,9.37
2023-03-20T19:40:46.746Z,10.17
2023-03-20T19:52:41.969Z,10.00
2023-03-20T19:57:43.707Z,10.17
2023-03-20T20:09:24.637Z,8.83
2023-03-20T20:27:17.416Z,8.47
2023-03-20T20:32:22.583Z,10.10
2023-03-20T20:43:08.331Z,9.20
2023-03-20T20:55:27.673Z,7.83
2023-03-20T21:13:20.883Z,7.97
2023-03-20T21:18:32.195Z,6.80
2023-03-20T21:23:52.162Z,7.77
2023-03-20T21:29:12.554Z,6.80
2023-03-20T21:34:16.734Z,7.13
2023-03-20T21:39:21.750Z,6.87
2023-03-20T21:45:13.262Z,6.83
2023-03-20T21:50:42.114Z,7.17
2023-03-20T21:56:13.876Z,6.37
2023-03-20T22:02:06.520Z,6.67
2023-03-20T22:07:09.540Z,6.40
2023-03-20T22:23:21.630Z,6.27
2023-03-20T22:34:28.894Z,8.80
2023-03-20T22:45:00.435Z,6.43
2023-03-20T22:50:06.242Z,7.00
2023-03-20T22:55:14.809Z,7.83
2023-03-20T23:00:24.087Z,6.43
2023-03-20T23:05:29.867Z,7.60
2023-03-20T23:10:41.000Z,6.10
2023-03-20T23:15:55.415Z,6.97
2023-03-20T23:21:02.192Z,6.90
2023-03-20T23:26:17.689Z,7.13
2023-03-20T23:31:26.893Z,7.03
2023-03-20T23:36:48.889Z,6.27
2023-03-20T23:42:14.596Z,7.70
2023-03-20T23:47:38.458Z,7.77
2023-03-20T23:52:58.979Z,6.83
2023-03-20T23:58:08.193Z,7.33
